sensor_id;sensor_type;location;lat;lon;timestamp;P1;durP1;ratioP1;P2;durP2;ratioP2
35394;SDS011;21500;45.308;9.488;2023-07-09T00:02:12;13.18;;;9.75;;
35394;SDS011;21500;45.308;9.488;2023-07-09T00:04:39;12.93;;;10.43;;
35394;SDS011;21500;45.308;9.488;2023-07-09T00:07:05;11.15;;;9.30;;
35394;SDS011;21500;45.308;9.488;2023-07-09T00:09:43;12.00;;;9.35;;
35394;SDS011;21500;45.308;9.488;2023-07-09T00:12:11;15.38;;;9.57;;
35394;SDS011;21500;45.308;9.488;2023-07-09T00:14:39;11.98;;;9.55;;
35394;SDS011;21500;45.308;9.488;2023-07-09T00:17:09;15.82;;;10.43;;
35394;SDS011;21500;45.308;9.488;2023-07-09T00:19:36;14.05;;;11.10;;
35394;SDS011;21500;45.308;9.488;2023-07-09T00:22:02;13.75;;;10.35;;
35394;SDS011;21500;45.308;9.488;2023-07-09T00:24:35;19.55;;;10.45;;
35394;SDS011;21500;45.308;9.488;2023-07-09T00:27:00;13.45;;;11.50;;
35394;SDS011;21500;45.308;9.488;2023-07-09T00:29:26;12.88;;;10.93;;
35394;SDS011;21500;45.308;9.488;2023-07-09T00:31:52;13.80;;;11.43;;
35394;SDS011;21500;45.308;9.488;2023-07-09T00:34:18;15.23;;;12.25;;
35394;SDS011;21500;45.308;9.488;2023-07-09T00:36:46;13.57;;;12.18;;
35394;SDS011;21500;45.308;9.488;2023-07-09T00:39:19;16.05;;;13.30;;
35394;SDS011;21500;45.308;9.488;2023-07-09T00:41:46;14.55;;;11.38;;
35394;SDS011;21500;45.308;9.488;2023-07-09T00:44:31;15.52;;;12.45;;
35394;SDS011;21500;45.308;9.488;2023-07-09T00:49:28;17.17;;;13.13;;
35394;SDS011;21500;45.308;9.488;2023-07-09T00:51:58;12.45;;;10.75;;
35394;SDS011;21500;45.308;9.488;2023-07-09T00:54:32;14.13;;;12.70;;
35394;SDS011;21500;45.308;9.488;2023-07-09T00:57:10;17.40;;;13.35;;
35394;SDS011;21500;45.308;9.488;2023-07-09T00:59:42;18.42;;;14.20;;
35394;SDS011;21500;45.308;9.488;2023-07-09T01:02:11;19.50;;;15.13;;
35394;SDS011;21500;45.308;9.488;2023-07-09T01:04:40;17.75;;;13.23;;
35394;SDS011;21500;45.308;9.488;2023-07-09T01:07:07;17.80;;;14.90;;
35394;SDS011;21500;45.308;9.488;2023-07-09T01:09:33;18.25;;;15.93;;
35394;SDS011;21500;45.308;9.488;2023-07-09T01:12:06;24.02;;;14.38;;
35394;SDS011;21500;45.308;9.488;2023-07-09T01:14:34;19.48;;;15.35;;
35394;SDS011;21500;45.308;9.488;2023-07-09T01:17:02;18.15;;;16.25;;
35394;SDS011;21500;45.308;9.488;2023-07-09T01:19:36;19.88;;;16.15;;
35394;SDS011;21500;45.308;9.488;2023-07-09T01:22:08;17.00;;;14.43;;
35394;SDS011;21500;45.308;9.488;2023-07-09T01:24:48;17.10;;;14.90;;
35394;SDS011;21500;45.308;9.488;2023-07-09T01:27:14;19.83;;;16.27;;
35394;SDS011;21500;45.308;9.488;2023-07-09T01:29:41;18.65;;;14.80;;
35394;SDS011;21500;45.308;9.488;2023-07-09T01:32:09;18.25;;;16.13;;
35394;SDS011;21500;45.308;9.488;2023-07-09T01:34:35;17.02;;;14.77;;
35394;SDS011;21500;45.308;9.488;2023-07-09T01:37:01;20.13;;;15.38;;
35394;SDS011;21500;45.308;9.488;2023-07-09T01:39:26;19.73;;;16.13;;
35394;SDS011;21500;45.308;9.488;2023-07-09T01:41:57;19.90;;;16.13;;
35394;SDS011;21500;45.308;9.488;2023-07-09T01:44:23;20.67;;;15.95;;
35394;SDS011;21500;45.308;9.488;2023-07-09T01:46:49;18.27;;;16.27;;
35394;SDS011;21500;45.308;9.488;2023-07-09T01:49:15;20.35;;;15.73;;
35394;SDS011;21500;45.308;9.488;2023-07-09T01:51:41;19.67;;;16.30;;
35394;SDS011;21500;45.308;9.488;2023-07-09T01:54:07;17.75;;;15.00;;
35394;SDS011;21500;45.308;9.488;2023-07-09T01:56:35;17.98;;;15.73;;
35394;SDS011;21500;45.308;9.488;2023-07-09T01:59:04;19.35;;;17.05;;
35394;SDS011;21500;45.308;9.488;2023-07-09T02:01:31;19.95;;;16.70;;
35394;SDS011;21500;45.308;9.488;2023-07-09T02:04:02;23.40;;;17.48;;
35394;SDS011;21500;45.308;9.488;2023-07-09T02:06:30;18.25;;;15.63;;
35394;SDS011;21500;45.308;9.488;2023-07-09T02:08:59;20.95;;;16.27;;
35394;SDS011;21500;45.308;9.488;2023-07-09T02:11:24;18.77;;;16.38;;
35394;SDS011;21500;45.308;9.488;2023-07-09T02:13:50;18.55;;;16.65;;
35394;SDS011;21500;45.308;9.488;2023-07-09T02:16:16;21.15;;;17.77;;
35394;SDS011;21500;45.308;9.488;2023-07-09T02:18:42;19.58;;;17.45;;
35394;SDS011;21500;45.308;9.488;2023-07-09T02:21:07;19.55;;;17.50;;
35394;SDS011;21500;45.308;9.488;2023-07-09T02:23:33;20.50;;;18.27;;
35394;SDS011;21500;45.308;9.488;2023-07-09T02:25:59;26.05;;;18.65;;
35394;SDS011;21500;45.308;9.488;2023-07-09T02:28:24;23.15;;;19.85;;
35394;SDS011;21500;45.308;9.488;2023-07-09T02:30:50;22.20;;;19.67;;
35394;SDS011;21500;45.308;9.488;2023-07-09T02:33:18;21.70;;;17.90;;
35394;SDS011;21500;45.308;9.488;2023-07-09T02:35:45;20.13;;;18.10;;
35394;SDS011;21500;45.308;9.488;2023-07-09T02:38:12;22.77;;;19.17;;
35394;SDS011;21500;45.308;9.488;2023-07-09T02:40:38;22.02;;;18.27;;
35394;SDS011;21500;45.308;9.488;2023-07-09T02:43:04;24.00;;;19.23;;
35394;SDS011;21500;45.308;9.488;2023-07-09T02:45:30;21.40;;;19.10;;
35394;SDS011;21500;45.308;9.488;2023-07-09T02:47:56;22.45;;;19.10;;
35394;SDS011;21500;45.308;9.488;2023-07-09T02:50:22;22.27;;;19.60;;
35394;SDS011;21500;45.308;9.488;2023-07-09T02:52:49;23.55;;;19.90;;
35394;SDS011;21500;45.308;9.488;2023-07-09T02:55:14;26.45;;;21.08;;
35394;SDS011;21500;45.308;9.488;2023-07-09T02:57:40;23.73;;;20.33;;
35394;SDS011;21500;45.308;9.488;2023-07-09T03:00:06;22.30;;;19.65;;
35394;SDS011;21500;45.308;9.488;2023-07-09T03:02:33;24.90;;;19.77;;
35394;SDS011;21500;45.308;9.488;2023-07-09T03:04:59;22.20;;;19.10;;
35394;SDS011;21500;45.308;9.488;2023-07-09T03:07:25;24.45;;;20.05;;
35394;SDS011;21500;45.308;9.488;2023-07-09T03:09:51;22.48;;;19.83;;
35394;SDS011;21500;45.308;9.488;2023-07-09T03:12:17;22.88;;;19.25;;
35394;SDS011;21500;45.308;9.488;2023-07-09T03:14:43;22.38;;;18.65;;
35394;SDS011;21500;45.308;9.488;2023-07-09T03:17:12;22.77;;;19.60;;
35394;SDS011;21500;45.308;9.488;2023-07-09T03:19:38;26.88;;;19.15;;
35394;SDS011;21500;45.308;9.488;2023-07-09T03:22:03;22.42;;;17.83;;
35394;SDS011;21500;45.308;9.488;2023-07-09T03:24:29;22.13;;;18.52;;
35394;SDS011;21500;45.308;9.488;2023-07-09T03:26:56;20.88;;;18.55;;
35394;SDS011;21500;45.308;9.488;2023-07-09T03:29:22;27.42;;;19.95;;
35394;SDS011;21500;45.308;9.488;2023-07-09T03:31:48;20.95;;;18.67;;
35394;SDS011;21500;45.308;9.488;2023-07-09T03:34:14;24.85;;;20.38;;
35394;SDS011;21500;45.308;9.488;2023-07-09T03:36:40;20.48;;;18.38;;
35394;SDS011;21500;45.308;9.488;2023-07-09T03:39:06;26.48;;;18.50;;
35394;SDS011;21500;45.308;9.488;2023-07-09T03:41:33;20.50;;;18.17;;
35394;SDS011;21500;45.308;9.488;2023-07-09T03:43:59;24.55;;;18.70;;
35394;SDS011;21500;45.308;9.488;2023-07-09T03:46:25;23.67;;;19.33;;
35394;SDS011;21500;45.308;9.488;2023-07-09T03:48:50;21.17;;;18.65;;
35394;SDS011;21500;45.308;9.488;2023-07-09T03:51:16;19.92;;;17.50;;
35394;SDS011;21500;45.308;9.488;2023-07-09T03:53:43;22.58;;;18.70;;
35394;SDS011;21500;45.308;9.488;2023-07-09T03:56:08;19.63;;;17.55;;
35394;SDS011;21500;45.308;9.488;2023-07-09T03:58:35;22.70;;;19.63;;
35394;SDS011;21500;45.308;9.488;2023-07-09T04:01:01;25.65;;;19.63;;
35394;SDS011;21500;45.308;9.488;2023-07-09T04:03:26;24.00;;;19.02;;
35394;SDS011;21500;45.308;9.488;2023-07-09T04:05:52;25.33;;;19.38;;
35394;SDS011;21500;45.308;9.488;2023-07-09T04:08:18;23.90;;;21.40;;
35394;SDS011;21500;45.308;9.488;2023-07-09T04:10:44;24.00;;;19.10;;
35394;SDS011;21500;45.308;9.488;2023-07-09T04:13:09;24.33;;;19.75;;
35394;SDS011;21500;45.308;9.488;2023-07-09T04:15:35;22.77;;;18.88;;
35394;SDS011;21500;45.308;9.488;2023-07-09T04:18:01;23.52;;;19.38;;
35394;SDS011;21500;45.308;9.488;2023-07-09T04:20:27;22.52;;;19.63;;
35394;SDS011;21500;45.308;9.488;2023-07-09T04:22:53;23.27;;;18.23;;
35394;SDS011;21500;45.308;9.488;2023-07-09T04:25:19;26.05;;;18.70;;
35394;SDS011;21500;45.308;9.488;2023-07-09T04:27:44;25.98;;;19.27;;
35394;SDS011;21500;45.308;9.488;2023-07-09T04:30:12;24.20;;;19.58;;
35394;SDS011;21500;45.308;9.488;2023-07-09T04:32:40;23.85;;;19.58;;
35394;SDS011;21500;45.308;9.488;2023-07-09T04:35:08;23.40;;;19.73;;
35394;SDS011;21500;45.308;9.488;2023-07-09T04:37:36;24.77;;;19.40;;
35394;SDS011;21500;45.308;9.488;2023-07-09T04:40:03;22.90;;;18.73;;
35394;SDS011;21500;45.308;9.488;2023-07-09T04:42:32;24.33;;;18.67;;
35394;SDS011;21500;45.308;9.488;2023-07-09T04:44:59;23.05;;;20.60;;
35394;SDS011;21500;45.308;9.488;2023-07-09T04:47:24;23.13;;;19.70;;
35394;SDS011;21500;45.308;9.488;2023-07-09T04:49:50;48.13;;;21.98;;
35394;SDS011;21500;45.308;9.488;2023-07-09T04:52:16;21.83;;;19.13;;
35394;SDS011;21500;45.308;9.488;2023-07-09T04:54:42;22.98;;;19.70;;
35394;SDS011;21500;45.308;9.488;2023-07-09T04:57:09;24.88;;;19.17;;
35394;SDS011;21500;45.308;9.488;2023-07-09T04:59:37;25.25;;;19.20;;
35394;SDS011;21500;45.308;9.488;2023-07-09T05:02:03;24.17;;;18.58;;
35394;SDS011;21500;45.308;9.488;2023-07-09T05:04:29;23.10;;;19.17;;
35394;SDS011;21500;45.308;9.488;2023-07-09T05:06:56;25.50;;;21.40;;
35394;SDS011;21500;45.308;9.488;2023-07-09T05:09:22;25.88;;;19.00;;
35394;SDS011;21500;45.308;9.488;2023-07-09T05:11:49;22.08;;;18.63;;
35394;SDS011;21500;45.308;9.488;2023-07-09T05:14:16;21.02;;;18.65;;
35394;SDS011;21500;45.308;9.488;2023-07-09T05:16:42;25.17;;;18.10;;
35394;SDS011;21500;45.308;9.488;2023-07-09T05:19:08;22.95;;;18.92;;
35394;SDS011;21500;45.308;9.488;2023-07-09T05:21:35;21.35;;;18.30;;
35394;SDS011;21500;45.308;9.488;2023-07-09T05:24:01;20.15;;;18.00;;
35394;SDS011;21500;45.308;9.488;2023-07-09T05:26:27;20.95;;;17.20;;
35394;SDS011;21500;45.308;9.488;2023-07-09T05:28:52;22.88;;;16.42;;
35394;SDS011;21500;45.308;9.488;2023-07-09T05:31:20;18.35;;;16.35;;
35394;SDS011;21500;45.308;9.488;2023-07-09T05:33:45;19.55;;;16.30;;
35394;SDS011;21500;45.308;9.488;2023-07-09T05:36:11;23.08;;;18.48;;
35394;SDS011;21500;45.308;9.488;2023-07-09T05:38:41;19.42;;;16.60;;
35394;SDS011;21500;45.308;9.488;2023-07-09T05:41:08;20.02;;;15.85;;
35394;SDS011;21500;45.308;9.488;2023-07-09T05:43:35;21.58;;;15.65;;
35394;SDS011;21500;45.308;9.488;2023-07-09T05:46:01;18.52;;;15.52;;
35394;SDS011;21500;45.308;9.488;2023-07-09T05:48:28;25.40;;;16.80;;
35394;SDS011;21500;45.308;9.488;2023-07-09T05:50:54;19.88;;;15.02;;
35394;SDS011;21500;45.308;9.488;2023-07-09T05:53:22;18.05;;;14.80;;
35394;SDS011;21500;45.308;9.488;2023-07-09T05:55:48;18.88;;;15.50;;
35394;SDS011;21500;45.308;9.488;2023-07-09T05:58:19;18.60;;;15.93;;
35394;SDS011;21500;45.308;9.488;2023-07-09T06:00:45;16.30;;;13.23;;
35394;SDS011;21500;45.308;9.488;2023-07-09T06:03:10;16.35;;;13.43;;
35394;SDS011;21500;45.308;9.488;2023-07-09T06:05:36;15.88;;;13.98;;
35394;SDS011;21500;45.308;9.488;2023-07-09T06:08:03;15.65;;;13.57;;
35394;SDS011;21500;45.308;9.488;2023-07-09T06:10:29;16.52;;;14.18;;
35394;SDS011;21500;45.308;9.488;2023-07-09T06:12:55;17.02;;;14.95;;
35394;SDS011;21500;45.308;9.488;2023-07-09T06:15:24;23.90;;;17.08;;
35394;SDS011;21500;45.308;9.488;2023-07-09T06:17:50;18.52;;;15.05;;
35394;SDS011;21500;45.308;9.488;2023-07-09T06:20:16;23.95;;;14.73;;
35394;SDS011;21500;45.308;9.488;2023-07-09T06:22:42;24.77;;;15.88;;
35394;SDS011;21500;45.308;9.488;2023-07-09T06:25:08;19.60;;;15.27;;
35394;SDS011;21500;45.308;9.488;2023-07-09T06:27:34;16.00;;;14.00;;
35394;SDS011;21500;45.308;9.488;2023-07-09T06:30:00;17.85;;;14.98;;
35394;SDS011;21500;45.308;9.488;2023-07-09T06:32:27;21.15;;;17.33;;
35394;SDS011;21500;45.308;9.488;2023-07-09T06:34:53;23.55;;;15.68;;
35394;SDS011;21500;45.308;9.488;2023-07-09T06:37:18;21.23;;;15.23;;
35394;SDS011;21500;45.308;9.488;2023-07-09T06:39:44;17.30;;;14.30;;
35394;SDS011;21500;45.308;9.488;2023-07-09T06:42:10;18.58;;;14.75;;
35394;SDS011;21500;45.308;9.488;2023-07-09T06:44:55;17.77;;;14.02;;
35394;SDS011;21500;45.308;9.488;2023-07-09T06:47:21;16.15;;;13.73;;
35394;SDS011;21500;45.308;9.488;2023-07-09T06:49:46;16.13;;;13.98;;
35394;SDS011;21500;45.308;9.488;2023-07-09T06:52:12;18.13;;;14.35;;
35394;SDS011;21500;45.308;9.488;2023-07-09T06:54:39;18.42;;;14.50;;
35394;SDS011;21500;45.308;9.488;2023-07-09T06:57:05;18.25;;;15.65;;
35394;SDS011;21500;45.308;9.488;2023-07-09T06:59:31;16.92;;;15.10;;
35394;SDS011;21500;45.308;9.488;2023-07-09T07:01:57;17.75;;;15.23;;
35394;SDS011;21500;45.308;9.488;2023-07-09T07:04:25;17.83;;;14.57;;
35394;SDS011;21500;45.308;9.488;2023-07-09T07:06:51;18.20;;;14.43;;
35394;SDS011;21500;45.308;9.488;2023-07-09T07:09:17;20.40;;;15.63;;
35394;SDS011;21500;45.308;9.488;2023-07-09T07:11:43;14.15;;;12.65;;
35394;SDS011;21500;45.308;9.488;2023-07-09T07:14:09;21.65;;;16.95;;
35394;SDS011;21500;45.308;9.488;2023-07-09T07:16:38;19.92;;;16.60;;
35394;SDS011;21500;45.308;9.488;2023-07-09T07:19:04;20.42;;;15.15;;
35394;SDS011;21500;45.308;9.488;2023-07-09T07:21:36;18.50;;;14.82;;
35394;SDS011;21500;45.308;9.488;2023-07-09T07:24:02;24.08;;;15.65;;
35394;SDS011;21500;45.308;9.488;2023-07-09T07:26:34;20.85;;;16.48;;
35394;SDS011;21500;45.308;9.488;2023-07-09T07:29:07;19.63;;;17.08;;
35394;SDS011;21500;45.308;9.488;2023-07-09T07:31:34;27.05;;;16.75;;
35394;SDS011;21500;45.308;9.488;2023-07-09T07:34:12;20.75;;;15.25;;
35394;SDS011;21500;45.308;9.488;2023-07-09T07:36:40;20.08;;;16.95;;
35394;SDS011;21500;45.308;9.488;2023-07-09T07:39:05;22.52;;;18.25;;
35394;SDS011;21500;45.308;9.488;2023-07-09T07:41:31;20.33;;;15.52;;
35394;SDS011;21500;45.308;9.488;2023-07-09T07:43:57;18.38;;;15.63;;
35394;SDS011;21500;45.308;9.488;2023-07-09T07:46:23;20.58;;;16.02;;
35394;SDS011;21500;45.308;9.488;2023-07-09T07:48:50;20.33;;;16.00;;
35394;SDS011;21500;45.308;9.488;2023-07-09T07:51:16;23.40;;;17.60;;
35394;SDS011;21500;45.308;9.488;2023-07-09T07:53:42;21.58;;;17.00;;
35394;SDS011;21500;45.308;9.488;2023-07-09T07:56:08;20.15;;;16.80;;
35394;SDS011;21500;45.308;9.488;2023-07-09T07:58:34;24.23;;;17.17;;
35394;SDS011;21500;45.308;9.488;2023-07-09T08:01:01;18.58;;;16.33;;
35394;SDS011;21500;45.308;9.488;2023-07-09T08:03:34;19.98;;;15.30;;
35394;SDS011;21500;45.308;9.488;2023-07-09T08:06:03;19.23;;;16.42;;
35394;SDS011;21500;45.308;9.488;2023-07-09T08:08:29;17.88;;;13.95;;
35394;SDS011;21500;45.308;9.488;2023-07-09T08:59:36;24.20;;;16.33;;
35394;SDS011;21500;45.308;9.488;2023-07-09T09:02:52;20.50;;;16.40;;
35394;SDS011;21500;45.308;9.488;2023-07-09T09:06:15;20.98;;;16.20;;
35394;SDS011;21500;45.308;9.488;2023-07-09T10:22:22;11.73;;;9.90;;
35394;SDS011;21500;45.308;9.488;2023-07-09T10:25:35;12.38;;;8.07;;
35394;SDS011;21500;45.308;9.488;2023-07-09T10:34:09;6.88;;;5.22;;
35394;SDS011;21500;45.308;9.488;2023-07-09T10:40:04;8.55;;;6.45;;
35394;SDS011;21500;45.308;9.488;2023-07-09T10:42:45;6.72;;;5.47;;
35394;SDS011;21500;45.308;9.488;2023-07-09T10:45:25;6.20;;;4.60;;
35394;SDS011;21500;45.308;9.488;2023-07-09T10:48:07;6.22;;;5.57;;
35394;SDS011;21500;45.308;9.488;2023-07-09T10:50:53;12.00;;;6.30;;
35394;SDS011;21500;45.308;9.488;2023-07-09T10:53:38;7.90;;;5.28;;
35394;SDS011;21500;45.308;9.488;2023-07-09T10:56:16;6.95;;;5.50;;
35394;SDS011;21500;45.308;9.488;2023-07-09T10:58:58;8.95;;;6.88;;
35394;SDS011;21500;45.308;9.488;2023-07-09T11:01:50;9.27;;;5.80;;
35394;SDS011;21500;45.308;9.488;2023-07-09T11:07:27;9.70;;;5.63;;
35394;SDS011;21500;45.308;9.488;2023-07-09T11:10:39;6.30;;;5.25;;
35394;SDS011;21500;45.308;9.488;2023-07-09T11:13:11;9.13;;;5.68;;
35394;SDS011;21500;45.308;9.488;2023-07-09T11:15:44;7.00;;;5.45;;
35394;SDS011;21500;45.308;9.488;2023-07-09T11:18:30;6.50;;;5.80;;
35394;SDS011;21500;45.308;9.488;2023-07-09T11:21:05;9.35;;;6.53;;
35394;SDS011;21500;45.308;9.488;2023-07-09T11:24:26;7.25;;;6.25;;
35394;SDS011;21500;45.308;9.488;2023-07-09T11:27:01;7.20;;;5.68;;
35394;SDS011;21500;45.308;9.488;2023-07-09T11:30:16;6.43;;;5.82;;
35394;SDS011;21500;45.308;9.488;2023-07-09T11:32:45;8.13;;;5.75;;
35394;SDS011;21500;45.308;9.488;2023-07-09T11:35:24;8.68;;;5.43;;
35394;SDS011;21500;45.308;9.488;2023-07-09T11:38:20;7.38;;;5.55;;
35394;SDS011;21500;45.308;9.488;2023-07-09T11:49:56;6.18;;;4.88;;
35394;SDS011;21500;45.308;9.488;2023-07-09T11:53:02;10.23;;;6.18;;
35394;SDS011;21500;45.308;9.488;2023-07-09T11:56:24;5.70;;;4.95;;
35394;SDS011;21500;45.308;9.488;2023-07-09T11:59:01;5.85;;;5.05;;
35394;SDS011;21500;45.308;9.488;2023-07-09T12:04:39;8.90;;;5.07;;
35394;SDS011;21500;45.308;9.488;2023-07-09T12:09:52;6.55;;;5.45;;
35394;SDS011;21500;45.308;9.488;2023-07-09T12:12:46;6.55;;;5.10;;
35394;SDS011;21500;45.308;9.488;2023-07-09T12:15:21;6.63;;;4.78;;
35394;SDS011;21500;45.308;9.488;2023-07-09T12:17:54;7.88;;;5.75;;
35394;SDS011;21500;45.308;9.488;2023-07-09T12:20:38;6.20;;;4.68;;
35394;SDS011;21500;45.308;9.488;2023-07-09T12:23:26;7.72;;;5.68;;
35394;SDS011;21500;45.308;9.488;2023-07-09T12:26:17;7.70;;;5.38;;
35394;SDS011;21500;45.308;9.488;2023-07-09T12:28:56;9.20;;;5.93;;
35394;SDS011;21500;45.308;9.488;2023-07-09T12:32:29;12.32;;;5.72;;
35394;SDS011;21500;45.308;9.488;2023-07-09T12:35:26;7.93;;;5.57;;
35394;SDS011;21500;45.308;9.488;2023-07-09T13:49:27;4.95;;;4.38;;
35394;SDS011;21500;45.308;9.488;2023-07-09T13:52:16;5.43;;;4.35;;
35394;SDS011;21500;45.308;9.488;2023-07-09T13:55:43;7.90;;;4.90;;
35394;SDS011;21500;45.308;9.488;2023-07-09T13:58:15;7.03;;;4.55;;
35394;SDS011;21500;45.308;9.488;2023-07-09T14:00:50;5.40;;;4.88;;
35394;SDS011;21500;45.308;9.488;2023-07-09T14:03:43;4.85;;;4.13;;
35394;SDS011;21500;45.308;9.488;2023-07-09T14:06:47;9.27;;;5.00;;
35394;SDS011;21500;45.308;9.488;2023-07-09T14:10:14;7.40;;;4.60;;
35394;SDS011;21500;45.308;9.488;2023-07-09T14:15:31;4.70;;;4.28;;
35394;SDS011;21500;45.308;9.488;2023-07-09T14:18:28;7.28;;;4.45;;
35394;SDS011;21500;45.308;9.488;2023-07-09T14:36:08;6.70;;;4.07;;
35394;SDS011;21500;45.308;9.488;2023-07-09T14:39:07;8.38;;;4.57;;
35394;SDS011;21500;45.308;9.488;2023-07-09T14:42:13;5.68;;;3.83;;
35394;SDS011;21500;45.308;9.488;2023-07-09T14:45:38;7.75;;;3.83;;
35394;SDS011;21500;45.308;9.488;2023-07-09T14:49:07;4.93;;;4.30;;
35394;SDS011;21500;45.308;9.488;2023-07-09T14:52:11;5.85;;;4.45;;
35394;SDS011;21500;45.308;9.488;2023-07-09T14:55:23;5.88;;;3.53;;
35394;SDS011;21500;45.308;9.488;2023-07-09T15:02:35;5.28;;;3.97;;
35394;SDS011;21500;45.308;9.488;2023-07-09T15:08:41;6.43;;;3.63;;
35394;SDS011;21500;45.308;9.488;2023-07-09T15:12:14;4.47;;;3.60;;
35394;SDS011;21500;45.308;9.488;2023-07-09T15:15:13;8.80;;;3.83;;
35394;SDS011;21500;45.308;9.488;2023-07-09T15:18:12;4.57;;;3.38;;
35394;SDS011;21500;45.308;9.488;2023-07-09T15:21:21;5.43;;;3.75;;
35394;SDS011;21500;45.308;9.488;2023-07-09T15:24:31;3.90;;;3.17;;
35394;SDS011;21500;45.308;9.488;2023-07-09T15:29:49;5.07;;;3.45;;
35394;SDS011;21500;45.308;9.488;2023-07-09T15:32:40;3.83;;;3.42;;
35394;SDS011;21500;45.308;9.488;2023-07-09T15:35:55;7.70;;;3.92;;
35394;SDS011;21500;45.308;9.488;2023-07-09T15:39:07;5.65;;;3.80;;
35394;SDS011;21500;45.308;9.488;2023-07-09T15:42:12;5.32;;;3.45;;
35394;SDS011;21500;45.308;9.488;2023-07-09T15:45:14;8.77;;;4.25;;
35394;SDS011;21500;45.308;9.488;2023-07-09T15:48:41;5.18;;;3.60;;
35394;SDS011;21500;45.308;9.488;2023-07-09T15:55:33;5.50;;;3.47;;
35394;SDS011;21500;45.308;9.488;2023-07-09T15:58:24;4.75;;;3.38;;
35394;SDS011;21500;45.308;9.488;2023-07-09T16:01:23;3.80;;;3.35;;
35394;SDS011;21500;45.308;9.488;2023-07-09T16:04:18;5.22;;;3.72;;
35394;SDS011;21500;45.308;9.488;2023-07-09T16:07:16;3.50;;;3.20;;
35394;SDS011;21500;45.308;9.488;2023-07-09T16:15:21;7.05;;;4.30;;
35394;SDS011;21500;45.308;9.488;2023-07-09T16:17:48;8.60;;;4.40;;
35394;SDS011;21500;45.308;9.488;2023-07-09T16:20:17;7.47;;;4.10;;
35394;SDS011;21500;45.308;9.488;2023-07-09T16:22:49;5.57;;;4.05;;
35394;SDS011;21500;45.308;9.488;2023-07-09T16:25:16;7.72;;;3.65;;
35394;SDS011;21500;45.308;9.488;2023-07-09T16:27:48;8.70;;;4.47;;
35394;SDS011;21500;45.308;9.488;2023-07-09T16:41:04;4.85;;;3.67;;
35394;SDS011;21500;45.308;9.488;2023-07-09T16:43:31;7.22;;;4.70;;
35394;SDS011;21500;45.308;9.488;2023-07-09T16:46:03;4.72;;;4.20;;
35394;SDS011;21500;45.308;9.488;2023-07-09T16:48:51;8.80;;;4.45;;
35394;SDS011;21500;45.308;9.488;2023-07-09T16:51:27;5.28;;;4.18;;
35394;SDS011;21500;45.308;9.488;2023-07-09T16:54:25;4.10;;;3.70;;
35394;SDS011;21500;45.308;9.488;2023-07-09T16:57:08;6.00;;;4.70;;
35394;SDS011;21500;45.308;9.488;2023-07-09T17:00:00;5.78;;;4.05;;
35394;SDS011;21500;45.308;9.488;2023-07-09T17:03:27;6.35;;;4.32;;
35394;SDS011;21500;45.308;9.488;2023-07-09T17:07:01;6.45;;;4.53;;
35394;SDS011;21500;45.308;9.488;2023-07-09T17:09:40;4.60;;;4.20;;
35394;SDS011;21500;45.308;9.488;2023-07-09T17:12:40;7.13;;;4.13;;
35394;SDS011;21500;45.308;9.488;2023-07-09T17:16:08;8.25;;;4.60;;
35394;SDS011;21500;45.308;9.488;2023-07-09T17:18:33;142.20;;;19.58;;
35394;SDS011;21500;45.308;9.488;2023-07-09T17:21:00;25.95;;;6.35;;
35394;SDS011;21500;45.308;9.488;2023-07-09T17:23:27;43.90;;;8.35;;
35394;SDS011;21500;45.308;9.488;2023-07-09T17:25:55;15.93;;;5.13;;
35394;SDS011;21500;45.308;9.488;2023-07-09T17:28:29;9.23;;;5.35;;
35394;SDS011;21500;45.308;9.488;2023-07-09T17:31:22;7.05;;;5.03;;
35394;SDS011;21500;45.308;9.488;2023-07-09T17:42:31;9.02;;;5.05;;
35394;SDS011;21500;45.308;9.488;2023-07-09T17:45:10;4.43;;;3.97;;
35394;SDS011;21500;45.308;9.488;2023-07-09T17:48:00;6.25;;;4.65;;
35394;SDS011;21500;45.308;9.488;2023-07-09T17:50:39;4.63;;;4.15;;
35394;SDS011;21500;45.308;9.488;2023-07-09T17:53:12;6.60;;;4.50;;
35394;SDS011;21500;45.308;9.488;2023-07-09T17:56:18;8.65;;;6.50;;
35394;SDS011;21500;45.308;9.488;2023-07-09T17:59:06;5.22;;;4.57;;
35394;SDS011;21500;45.308;9.488;2023-07-09T18:02:15;8.63;;;4.22;;
35394;SDS011;21500;45.308;9.488;2023-07-09T18:05:35;4.45;;;3.90;;
35394;SDS011;21500;45.308;9.488;2023-07-09T18:27:42;8.10;;;5.10;;
35394;SDS011;21500;45.308;9.488;2023-07-09T18:33:08;7.20;;;4.38;;
35394;SDS011;21500;45.308;9.488;2023-07-09T18:36:05;5.40;;;4.68;;
35394;SDS011;21500;45.308;9.488;2023-07-09T18:38:52;5.82;;;4.50;;
35394;SDS011;21500;45.308;9.488;2023-07-09T18:41:45;6.00;;;4.35;;
35394;SDS011;21500;45.308;9.488;2023-07-09T18:44:20;5.25;;;4.60;;
35394;SDS011;21500;45.308;9.488;2023-07-09T18:46:49;4.88;;;3.92;;
35394;SDS011;21500;45.308;9.488;2023-07-09T19:00:50;8.85;;;5.43;;
35394;SDS011;21500;45.308;9.488;2023-07-09T19:06:33;5.00;;;4.50;;
35394;SDS011;21500;45.308;9.488;2023-07-09T19:09:00;5.70;;;4.55;;
35394;SDS011;21500;45.308;9.488;2023-07-09T19:11:26;6.53;;;4.25;;
35394;SDS011;21500;45.308;9.488;2023-07-09T19:13:51;8.07;;;4.65;;
35394;SDS011;21500;45.308;9.488;2023-07-09T19:16:24;8.45;;;5.45;;
35394;SDS011;21500;45.308;9.488;2023-07-09T19:18:51;7.07;;;4.10;;
35394;SDS011;21500;45.308;9.488;2023-07-09T19:21:18;6.28;;;4.43;;
35394;SDS011;21500;45.308;9.488;2023-07-09T19:23:43;8.32;;;5.13;;
35394;SDS011;21500;45.308;9.488;2023-07-09T19:26:09;6.35;;;4.28;;
35394;SDS011;21500;45.308;9.488;2023-07-09T19:28:35;8.70;;;4.70;;
35394;SDS011;21500;45.308;9.488;2023-07-09T19:34:20;10.40;;;4.95;;
35394;SDS011;21500;45.308;9.488;2023-07-09T19:36:48;6.97;;;4.57;;
35394;SDS011;21500;45.308;9.488;2023-07-09T19:50:08;12.63;;;7.82;;
35394;SDS011;21500;45.308;9.488;2023-07-09T19:52:44;9.38;;;7.18;;
35394;SDS011;21500;45.308;9.488;2023-07-09T19:55:27;11.43;;;7.18;;
35394;SDS011;21500;45.308;9.488;2023-07-09T19:57:59;8.88;;;6.72;;
